sensor_id;sensor_type;location;lat;lon;timestamp;pressure;altitude;pressure_sealevel;temperature
15062;BMP180;7630;50.306;8.566;2022-08-19T00:01:20;97574.00;;;23.30
15062;BMP180;7630;50.306;8.566;2022-08-19T00:05:23;97576.00;;;23.20
15062;BMP180;7630;50.306;8.566;2022-08-19T00:09:25;97575.00;;;23.10
15062;BMP180;7630;50.306;8.566;2022-08-19T00:13:27;97577.00;;;23.00
15062;BMP180;7630;50.306;8.566;2022-08-19T00:17:29;97577.00;;;23.20
15062;BMP180;7630;50.306;8.566;2022-08-19T00:21:30;97586.00;;;23.30
15062;BMP180;7630;50.306;8.566;2022-08-19T00:25:32;97577.00;;;23.40
15062;BMP180;7630;50.306;8.566;2022-08-19T00:29:34;97579.00;;;23.40
15062;BMP180;7630;50.306;8.566;2022-08-19T00:33:35;97565.00;;;23.40
15062;BMP180;7630;50.306;8.566;2022-08-19T00:37:37;97561.00;;;23.40
15062;BMP180;7630;50.306;8.566;2022-08-19T00:41:39;97550.00;;;23.40
15062;BMP180;7630;50.306;8.566;2022-08-19T00:45:41;97552.00;;;23.30
15062;BMP180;7630;50.306;8.566;2022-08-19T00:49:47;97560.00;;;23.30
15062;BMP180;7630;50.306;8.566;2022-08-19T00:53:51;97541.00;;;23.30
15062;BMP180;7630;50.306;8.566;2022-08-19T00:57:55;97543.00;;;23.50
15062;BMP180;7630;50.306;8.566;2022-08-19T01:01:57;97541.00;;;23.60
15062;BMP180;7630;50.306;8.566;2022-08-19T01:05:58;97525.00;;;23.10
15062;BMP180;7630;50.306;8.566;2022-08-19T01:10:01;97529.00;;;23.20
15062;BMP180;7630;50.306;8.566;2022-08-19T01:14:03;97530.00;;;22.80
15062;BMP180;7630;50.306;8.566;2022-08-19T01:18:08;97524.00;;;23.10
15062;BMP180;7630;50.306;8.566;2022-08-19T01:22:17;97523.00;;;23.20
15062;BMP180;7630;50.306;8.566;2022-08-19T01:26:21;97521.00;;;22.90
15062;BMP180;7630;50.306;8.566;2022-08-19T01:30:28;97523.00;;;23.00
15062;BMP180;7630;50.306;8.566;2022-08-19T01:34:28;97515.00;;;22.60
15062;BMP180;7630;50.306;8.566;2022-08-19T01:38:30;97509.00;;;22.70
15062;BMP180;7630;50.306;8.566;2022-08-19T01:42:32;97513.00;;;22.40
15062;BMP180;7630;50.306;8.566;2022-08-19T01:46:33;97514.00;;;22.60
15062;BMP180;7630;50.306;8.566;2022-08-19T01:50:35;97510.00;;;22.90
15062;BMP180;7630;50.306;8.566;2022-08-19T01:54:37;97503.00;;;22.40
15062;BMP180;7630;50.306;8.566;2022-08-19T01:58:40;97511.00;;;22.70
15062;BMP180;7630;50.306;8.566;2022-08-19T02:02:43;97510.00;;;22.60
15062;BMP180;7630;50.306;8.566;2022-08-19T02:06:44;97513.00;;;22.30
15062;BMP180;7630;50.306;8.566;2022-08-19T02:10:45;97510.00;;;22.80
15062;BMP180;7630;50.306;8.566;2022-08-19T02:14:47;97501.00;;;22.40
15062;BMP180;7630;50.306;8.566;2022-08-19T02:18:48;97523.00;;;22.70
15062;BMP180;7630;50.306;8.566;2022-08-19T02:22:50;97524.00;;;22.60
15062;BMP180;7630;50.306;8.566;2022-08-19T02:26:51;97518.00;;;22.70
15062;BMP180;7630;50.306;8.566;2022-08-19T02:30:52;97523.00;;;22.10
15062;BMP180;7630;50.306;8.566;2022-08-19T02:34:53;97534.00;;;21.90
15062;BMP180;7630;50.306;8.566;2022-08-19T02:38:54;97541.00;;;22.10
15062;BMP180;7630;50.306;8.566;2022-08-19T02:42:56;97534.00;;;21.90
15062;BMP180;7630;50.306;8.566;2022-08-19T02:46:57;97543.00;;;22.10
15062;BMP180;7630;50.306;8.566;2022-08-19T02:50:58;97542.00;;;22.20
15062;BMP180;7630;50.306;8.566;2022-08-19T02:55:00;97536.00;;;22.50
15062;BMP180;7630;50.306;8.566;2022-08-19T02:59:03;97534.00;;;22.60
15062;BMP180;7630;50.306;8.566;2022-08-19T03:03:07;97533.00;;;22.00
15062;BMP180;7630;50.306;8.566;2022-08-19T03:07:09;97528.00;;;21.90
15062;BMP180;7630;50.306;8.566;2022-08-19T03:11:20;97541.00;;;22.10
15062;BMP180;7630;50.306;8.566;2022-08-19T03:15:21;97538.00;;;21.70
15062;BMP180;7630;50.306;8.566;2022-08-19T03:19:22;97533.00;;;22.00
15062;BMP180;7630;50.306;8.566;2022-08-19T03:23:23;97528.00;;;21.40
15062;BMP180;7630;50.306;8.566;2022-08-19T03:27:24;97529.00;;;21.70
15062;BMP180;7630;50.306;8.566;2022-08-19T03:31:27;97530.00;;;21.90
15062;BMP180;7630;50.306;8.566;2022-08-19T03:35:30;97528.00;;;21.70
15062;BMP180;7630;50.306;8.566;2022-08-19T03:39:31;97547.00;;;19.90
15062;BMP180;7630;50.306;8.566;2022-08-19T03:43:38;97549.00;;;19.40
15062;BMP180;7630;50.306;8.566;2022-08-19T03:47:39;97549.00;;;19.40
15062;BMP180;7630;50.306;8.566;2022-08-19T03:51:41;97546.00;;;20.20
15062;BMP180;7630;50.306;8.566;2022-08-19T03:55:43;97552.00;;;20.70
15062;BMP180;7630;50.306;8.566;2022-08-19T03:59:45;97557.00;;;21.30
15062;BMP180;7630;50.306;8.566;2022-08-19T04:03:46;97555.00;;;21.10
15062;BMP180;7630;50.306;8.566;2022-08-19T04:07:48;97552.00;;;22.00
15062;BMP180;7630;50.306;8.566;2022-08-19T04:11:52;97560.00;;;21.90
15062;BMP180;7630;50.306;8.566;2022-08-19T04:15:56;97546.00;;;21.90
15062;BMP180;7630;50.306;8.566;2022-08-19T04:19:58;97548.00;;;21.40
15062;BMP180;7630;50.306;8.566;2022-08-19T04:24:01;97556.00;;;21.50
15062;BMP180;7630;50.306;8.566;2022-08-19T04:28:04;97559.00;;;21.50
15062;BMP180;7630;50.306;8.566;2022-08-19T04:32:05;97559.00;;;21.50
15062;BMP180;7630;50.306;8.566;2022-08-19T04:36:17;97556.00;;;21.90
15062;BMP180;7630;50.306;8.566;2022-08-19T04:40:21;97561.00;;;21.80
15062;BMP180;7630;50.306;8.566;2022-08-19T04:44:41;97562.00;;;22.00
15062;BMP180;7630;50.306;8.566;2022-08-19T04:48:43;97561.00;;;22.20
15062;BMP180;7630;50.306;8.566;2022-08-19T04:52:46;97559.00;;;22.20
15062;BMP180;7630;50.306;8.566;2022-08-19T04:56:49;97564.00;;;22.10
15062;BMP180;7630;50.306;8.566;2022-08-19T05:00:51;97562.00;;;21.80
15062;BMP180;7630;50.306;8.566;2022-08-19T05:04:59;97556.00;;;21.70
15062;BMP180;7630;50.306;8.566;2022-08-19T05:09:03;97569.00;;;20.40
15062;BMP180;7630;50.306;8.566;2022-08-19T05:13:06;97574.00;;;21.80
15062;BMP180;7630;50.306;8.566;2022-08-19T05:17:09;97586.00;;;21.50
15062;BMP180;7630;50.306;8.566;2022-08-19T05:21:14;97581.00;;;21.40
15062;BMP180;7630;50.306;8.566;2022-08-19T05:25:34;97576.00;;;21.50
15062;BMP180;7630;50.306;8.566;2022-08-19T05:29:35;97575.00;;;20.90
15062;BMP180;7630;50.306;8.566;2022-08-19T05:33:37;97580.00;;;20.40
15062;BMP180;7630;50.306;8.566;2022-08-19T05:37:39;97583.00;;;20.90
15062;BMP180;7630;50.306;8.566;2022-08-19T05:41:43;97572.00;;;20.80
15062;BMP180;7630;50.306;8.566;2022-08-19T05:45:44;97571.00;;;20.90
15062;BMP180;7630;50.306;8.566;2022-08-19T05:49:46;97580.00;;;22.00
15062;BMP180;7630;50.306;8.566;2022-08-19T05:53:47;97574.00;;;22.70
15062;BMP180;7630;50.306;8.566;2022-08-19T05:57:48;97584.00;;;22.40
15062;BMP180;7630;50.306;8.566;2022-08-19T06:01:52;97588.00;;;23.20
15062;BMP180;7630;50.306;8.566;2022-08-19T06:05:55;97585.00;;;23.60
15062;BMP180;7630;50.306;8.566;2022-08-19T06:09:56;97589.00;;;22.70
15062;BMP180;7630;50.306;8.566;2022-08-19T06:14:05;97587.00;;;23.10
15062;BMP180;7630;50.306;8.566;2022-08-19T06:18:03;97597.00;;;23.20
15062;BMP180;7630;50.306;8.566;2022-08-19T06:22:04;97599.00;;;23.10
15062;BMP180;7630;50.306;8.566;2022-08-19T06:26:11;97605.00;;;23.10
15062;BMP180;7630;50.306;8.566;2022-08-19T06:30:12;97628.00;;;23.30
15062;BMP180;7630;50.306;8.566;2022-08-19T06:34:14;97632.00;;;23.30
15062;BMP180;7630;50.306;8.566;2022-08-19T06:38:15;97636.00;;;23.10
15062;BMP180;7630;50.306;8.566;2022-08-19T06:42:16;97634.00;;;23.40
15062;BMP180;7630;50.306;8.566;2022-08-19T06:46:22;97634.00;;;22.70
15062;BMP180;7630;50.306;8.566;2022-08-19T06:50:24;97635.00;;;23.40
15062;BMP180;7630;50.306;8.566;2022-08-19T06:54:27;97643.00;;;23.40
15062;BMP180;7630;50.306;8.566;2022-08-19T06:58:31;97643.00;;;23.50
15062;BMP180;7630;50.306;8.566;2022-08-19T07:02:32;97635.00;;;23.90
15062;BMP180;7630;50.306;8.566;2022-08-19T07:06:34;97638.00;;;24.30
15062;BMP180;7630;50.306;8.566;2022-08-19T07:10:42;97644.00;;;24.30
15062;BMP180;7630;50.306;8.566;2022-08-19T07:14:43;97648.00;;;25.20
15062;BMP180;7630;50.306;8.566;2022-08-19T07:18:47;97637.00;;;24.30
15062;BMP180;7630;50.306;8.566;2022-08-19T07:22:49;97631.00;;;24.70
15062;BMP180;7630;50.306;8.566;2022-08-19T07:26:52;97648.00;;;23.70
15062;BMP180;7630;50.306;8.566;2022-08-19T07:30:54;97647.00;;;24.80
15062;BMP180;7630;50.306;8.566;2022-08-19T07:34:56;97657.00;;;25.00
15062;BMP180;7630;50.306;8.566;2022-08-19T07:38:59;97657.00;;;24.60
15062;BMP180;7630;50.306;8.566;2022-08-19T07:43:01;97648.00;;;24.00
15062;BMP180;7630;50.306;8.566;2022-08-19T07:47:03;97637.00;;;24.40
15062;BMP180;7630;50.306;8.566;2022-08-19T07:51:06;97636.00;;;24.60
15062;BMP180;7630;50.306;8.566;2022-08-19T07:55:09;97631.00;;;24.50
15062;BMP180;7630;50.306;8.566;2022-08-19T07:59:13;97651.00;;;24.40
15062;BMP180;7630;50.306;8.566;2022-08-19T08:03:16;97647.00;;;25.00
15062;BMP180;7630;50.306;8.566;2022-08-19T08:07:18;97653.00;;;24.10
15062;BMP180;7630;50.306;8.566;2022-08-19T08:11:44;97663.00;;;24.50
15062;BMP180;7630;50.306;8.566;2022-08-19T08:15:42;97660.00;;;24.80
15062;BMP180;7630;50.306;8.566;2022-08-19T08:19:46;97660.00;;;25.30
15062;BMP180;7630;50.306;8.566;2022-08-19T08:23:49;97674.00;;;25.40
15062;BMP180;7630;50.306;8.566;2022-08-19T08:27:52;97674.00;;;26.20
15062;BMP180;7630;50.306;8.566;2022-08-19T08:31:55;97683.00;;;25.10
15062;BMP180;7630;50.306;8.566;2022-08-19T08:35:58;97682.00;;;25.40
15062;BMP180;7630;50.306;8.566;2022-08-19T08:40:03;97680.00;;;26.20
15062;BMP180;7630;50.306;8.566;2022-08-19T08:44:04;97675.00;;;25.80
15062;BMP180;7630;50.306;8.566;2022-08-19T08:48:12;97689.00;;;25.80
15062;BMP180;7630;50.306;8.566;2022-08-19T08:52:24;97695.00;;;25.10
15062;BMP180;7630;50.306;8.566;2022-08-19T08:56:28;97691.00;;;25.70
15062;BMP180;7630;50.306;8.566;2022-08-19T09:00:32;97691.00;;;25.70
15062;BMP180;7630;50.306;8.566;2022-08-19T09:04:35;97701.00;;;26.50
15062;BMP180;7630;50.306;8.566;2022-08-19T09:08:49;97688.00;;;25.60
15062;BMP180;7630;50.306;8.566;2022-08-19T09:13:05;97689.00;;;26.60
15062;BMP180;7630;50.306;8.566;2022-08-19T09:17:07;97695.00;;;25.40
15062;BMP180;7630;50.306;8.566;2022-08-19T09:21:09;97692.00;;;25.80
15062;BMP180;7630;50.306;8.566;2022-08-19T09:25:14;97688.00;;;26.50
15062;BMP180;7630;50.306;8.566;2022-08-19T09:29:15;97683.00;;;27.10
15062;BMP180;7630;50.306;8.566;2022-08-19T09:33:18;97690.00;;;27.90
15062;BMP180;7630;50.306;8.566;2022-08-19T09:37:20;97657.00;;;26.00
15062;BMP180;7630;50.306;8.566;2022-08-19T09:41:24;97665.00;;;26.00
15062;BMP180;7630;50.306;8.566;2022-08-19T09:45:28;97668.00;;;26.70
15062;BMP180;7630;50.306;8.566;2022-08-19T09:49:29;97664.00;;;25.80
15062;BMP180;7630;50.306;8.566;2022-08-19T09:53:30;97656.00;;;26.80
15062;BMP180;7630;50.306;8.566;2022-08-19T09:57:34;97664.00;;;27.10
15062;BMP180;7630;50.306;8.566;2022-08-19T10:01:35;97665.00;;;25.60
15062;BMP180;7630;50.306;8.566;2022-08-19T10:05:37;97718.00;;;26.30
15062;BMP180;7630;50.306;8.566;2022-08-19T10:09:50;97668.00;;;25.70
15062;BMP180;7630;50.306;8.566;2022-08-19T10:13:52;97665.00;;;26.50
15062;BMP180;7630;50.306;8.566;2022-08-19T10:17:53;97656.00;;;27.60
15062;BMP180;7630;50.306;8.566;2022-08-19T10:21:56;97652.00;;;27.90
15062;BMP180;7630;50.306;8.566;2022-08-19T10:26:03;97651.00;;;25.50
15062;BMP180;7630;50.306;8.566;2022-08-19T10:30:07;97660.00;;;26.80
15062;BMP180;7630;50.306;8.566;2022-08-19T10:34:11;97653.00;;;26.90
15062;BMP180;7630;50.306;8.566;2022-08-19T10:38:14;97646.00;;;27.80
15062;BMP180;7630;50.306;8.566;2022-08-19T10:42:15;97657.00;;;25.70
15062;BMP180;7630;50.306;8.566;2022-08-19T10:46:17;97666.00;;;27.50
15062;BMP180;7630;50.306;8.566;2022-08-19T10:50:19;97669.00;;;27.50
15062;BMP180;7630;50.306;8.566;2022-08-19T10:54:39;97663.00;;;27.50
15062;BMP180;7630;50.306;8.566;2022-08-19T10:59:01;97662.00;;;28.00
15062;BMP180;7630;50.306;8.566;2022-08-19T11:03:04;97646.00;;;26.30
15062;BMP180;7630;50.306;8.566;2022-08-19T11:07:05;97655.00;;;26.50
15062;BMP180;7630;50.306;8.566;2022-08-19T11:11:07;97656.00;;;28.30
15062;BMP180;7630;50.306;8.566;2022-08-19T11:15:09;97651.00;;;28.20
15062;BMP180;7630;50.306;8.566;2022-08-19T11:19:12;97643.00;;;29.10
15062;BMP180;7630;50.306;8.566;2022-08-19T11:23:14;97640.00;;;27.50
15062;BMP180;7630;50.306;8.566;2022-08-19T11:27:16;97637.00;;;26.20
15062;BMP180;7630;50.306;8.566;2022-08-19T11:31:19;97640.00;;;25.90
15062;BMP180;7630;50.306;8.566;2022-08-19T11:35:21;97629.00;;;26.30
15062;BMP180;7630;50.306;8.566;2022-08-19T11:39:25;97610.00;;;27.30
15062;BMP180;7630;50.306;8.566;2022-08-19T11:43:28;97603.00;;;27.00
15062;BMP180;7630;50.306;8.566;2022-08-19T11:47:29;97606.00;;;27.40
15062;BMP180;7630;50.306;8.566;2022-08-19T11:51:32;97599.00;;;28.10
15062;BMP180;7630;50.306;8.566;2022-08-19T11:55:37;97594.00;;;27.30
15062;BMP180;7630;50.306;8.566;2022-08-19T11:59:42;97598.00;;;28.50
15062;BMP180;7630;50.306;8.566;2022-08-19T12:03:45;97588.00;;;28.50
15062;BMP180;7630;50.306;8.566;2022-08-19T12:07:46;97602.00;;;29.70
15062;BMP180;7630;50.306;8.566;2022-08-19T12:11:48;97596.00;;;29.10
15062;BMP180;7630;50.306;8.566;2022-08-19T12:15:49;97598.00;;;27.90
15062;BMP180;7630;50.306;8.566;2022-08-19T12:19:51;97600.00;;;29.50
15062;BMP180;7630;50.306;8.566;2022-08-19T12:23:52;97594.00;;;28.80
15062;BMP180;7630;50.306;8.566;2022-08-19T12:27:55;97612.00;;;31.30
15062;BMP180;7630;50.306;8.566;2022-08-19T12:31:58;97597.00;;;30.40
15062;BMP180;7630;50.306;8.566;2022-08-19T12:36:07;97602.00;;;29.70
15062;BMP180;7630;50.306;8.566;2022-08-19T12:40:09;97597.00;;;31.00
15062;BMP180;7630;50.306;8.566;2022-08-19T12:44:12;97600.00;;;31.80
15062;BMP180;7630;50.306;8.566;2022-08-19T12:48:15;97592.00;;;32.90
15062;BMP180;7630;50.306;8.566;2022-08-19T12:52:18;97596.00;;;33.70
15062;BMP180;7630;50.306;8.566;2022-08-19T12:56:23;97597.00;;;31.60
15062;BMP180;7630;50.306;8.566;2022-08-19T13:00:25;97595.00;;;33.30
15062;BMP180;7630;50.306;8.566;2022-08-19T13:04:26;97583.00;;;34.40
15062;BMP180;7630;50.306;8.566;2022-08-19T13:08:27;97589.00;;;34.40
15062;BMP180;7630;50.306;8.566;2022-08-19T13:12:28;97575.00;;;34.00
15062;BMP180;7630;50.306;8.566;2022-08-19T13:16:30;97587.00;;;34.30
15062;BMP180;7630;50.306;8.566;2022-08-19T13:20:32;97595.00;;;32.90
15062;BMP180;7630;50.306;8.566;2022-08-19T13:24:34;97600.00;;;32.60
15062;BMP180;7630;50.306;8.566;2022-08-19T13:28:35;97608.00;;;33.20
15062;BMP180;7630;50.306;8.566;2022-08-19T13:32:55;97614.00;;;33.00
15062;BMP180;7630;50.306;8.566;2022-08-19T13:37:16;97614.00;;;33.10
15062;BMP180;7630;50.306;8.566;2022-08-19T13:41:19;97612.00;;;32.90
15062;BMP180;7630;50.306;8.566;2022-08-19T13:45:22;97610.00;;;33.30
15062;BMP180;7630;50.306;8.566;2022-08-19T13:49:25;97610.00;;;33.60
15062;BMP180;7630;50.306;8.566;2022-08-19T13:53:26;97611.00;;;32.60
15062;BMP180;7630;50.306;8.566;2022-08-19T13:57:27;97613.00;;;32.80
15062;BMP180;7630;50.306;8.566;2022-08-19T14:01:28;97602.00;;;33.50
15062;BMP180;7630;50.306;8.566;2022-08-19T14:05:32;97625.00;;;33.10
15062;BMP180;7630;50.306;8.566;2022-08-19T14:09:33;97626.00;;;31.40
15062;BMP180;7630;50.306;8.566;2022-08-19T14:13:34;97619.00;;;31.80
15062;BMP180;7630;50.306;8.566;2022-08-19T14:17:40;97629.00;;;31.40
15062;BMP180;7630;50.306;8.566;2022-08-19T14:21:42;97637.00;;;31.40
15062;BMP180;7630;50.306;8.566;2022-08-19T14:25:43;97639.00;;;31.60
15062;BMP180;7630;50.306;8.566;2022-08-19T14:29:45;97649.00;;;31.60
15062;BMP180;7630;50.306;8.566;2022-08-19T14:33:47;97651.00;;;31.80
15062;BMP180;7630;50.306;8.566;2022-08-19T14:37:50;97633.00;;;31.10
15062;BMP180;7630;50.306;8.566;2022-08-19T14:41:51;97636.00;;;32.50
15062;BMP180;7630;50.306;8.566;2022-08-19T14:45:52;97636.00;;;33.40
15062;BMP180;7630;50.306;8.566;2022-08-19T14:49:53;97630.00;;;32.00
15062;BMP180;7630;50.306;8.566;2022-08-19T14:53:55;97619.00;;;32.60
15062;BMP180;7630;50.306;8.566;2022-08-19T14:57:56;97612.00;;;31.70
15062;BMP180;7630;50.306;8.566;2022-08-19T15:01:59;97609.00;;;31.30
15062;BMP180;7630;50.306;8.566;2022-08-19T15:06:04;97598.00;;;30.60
15062;BMP180;7630;50.306;8.566;2022-08-19T15:10:07;97581.00;;;31.00
15062;BMP180;7630;50.306;8.566;2022-08-19T15:14:09;97584.00;;;30.80
15062;BMP180;7630;50.306;8.566;2022-08-19T15:18:11;97578.00;;;31.60
15062;BMP180;7630;50.306;8.566;2022-08-19T15:22:12;97575.00;;;32.10
15062;BMP180;7630;50.306;8.566;2022-08-19T15:26:15;97569.00;;;32.30
15062;BMP180;7630;50.306;8.566;2022-08-19T15:30:20;97574.00;;;31.10
15062;BMP180;7630;50.306;8.566;2022-08-19T15:34:23;97583.00;;;31.10
15062;BMP180;7630;50.306;8.566;2022-08-19T15:38:25;97593.00;;;30.10
15062;BMP180;7630;50.306;8.566;2022-08-19T15:42:27;97581.00;;;30.40
15062;BMP180;7630;50.306;8.566;2022-08-19T15:46:32;97580.00;;;30.70
15062;BMP180;7630;50.306;8.566;2022-08-19T15:50:33;97487.00;;;30.30
15062;BMP180;7630;50.306;8.566;2022-08-19T15:54:35;97587.00;;;31.00
15062;BMP180;7630;50.306;8.566;2022-08-19T15:58:37;97595.00;;;31.50
15062;BMP180;7630;50.306;8.566;2022-08-19T16:02:57;97606.00;;;31.30
15062;BMP180;7630;50.306;8.566;2022-08-19T16:07:17;97587.00;;;30.60
15062;BMP180;7630;50.306;8.566;2022-08-19T16:11:22;97593.00;;;31.40
15062;BMP180;7630;50.306;8.566;2022-08-19T16:15:28;97594.00;;;30.50
15062;BMP180;7630;50.306;8.566;2022-08-19T16:19:30;97591.00;;;31.30
15062;BMP180;7630;50.306;8.566;2022-08-19T16:23:34;97589.00;;;31.40
15062;BMP180;7630;50.306;8.566;2022-08-19T16:27:35;97597.00;;;30.30
15062;BMP180;7630;50.306;8.566;2022-08-19T16:31:37;97588.00;;;30.10
15062;BMP180;7630;50.306;8.566;2022-08-19T16:35:39;97581.00;;;30.70
15062;BMP180;7630;50.306;8.566;2022-08-19T16:39:40;97601.00;;;31.20
15062;BMP180;7630;50.306;8.566;2022-08-19T16:43:43;97599.00;;;29.80
15062;BMP180;7630;50.306;8.566;2022-08-19T16:47:44;97606.00;;;30.30
15062;BMP180;7630;50.306;8.566;2022-08-19T16:51:45;97609.00;;;30.70
15062;BMP180;7630;50.306;8.566;2022-08-19T16:55:48;97609.00;;;29.80
15062;BMP180;7630;50.306;8.566;2022-08-19T16:59:55;97619.00;;;29.60
15062;BMP180;7630;50.306;8.566;2022-08-19T17:03:57;97627.00;;;29.60
15062;BMP180;7630;50.306;8.566;2022-08-19T17:07:58;97629.00;;;30.00
15062;BMP180;7630;50.306;8.566;2022-08-19T17:11:59;97628.00;;;29.80
15062;BMP180;7630;50.306;8.566;2022-08-19T17:16:00;97633.00;;;30.00
15062;BMP180;7630;50.306;8.566;2022-08-19T17:20:03;97628.00;;;28.90
15062;BMP180;7630;50.306;8.566;2022-08-19T17:24:05;97623.00;;;29.10
15062;BMP180;7630;50.306;8.566;2022-08-19T17:28:15;97632.00;;;30.30
15062;BMP180;7630;50.306;8.566;2022-08-19T17:32:13;97638.00;;;29.00
15062;BMP180;7630;50.306;8.566;2022-08-19T17:36:17;97647.00;;;29.50
15062;BMP180;7630;50.306;8.566;2022-08-19T17:40:19;97641.00;;;28.70
15062;BMP180;7630;50.306;8.566;2022-08-19T17:44:22;97637.00;;;28.70
15062;BMP180;7630;50.306;8.566;2022-08-19T17:48:24;97631.00;;;28.80
15062;BMP180;7630;50.306;8.566;2022-08-19T17:52:25;97640.00;;;28.10
15062;BMP180;7630;50.306;8.566;2022-08-19T17:56:27;97637.00;;;28.20
15062;BMP180;7630;50.306;8.566;2022-08-19T18:00:32;97646.00;;;28.10
15062;BMP180;7630;50.306;8.566;2022-08-19T18:04:34;97640.00;;;28.30
15062;BMP180;7630;50.306;8.566;2022-08-19T18:08:36;97654.00;;;28.10
15062;BMP180;7630;50.306;8.566;2022-08-19T18:12:40;97653.00;;;27.70
15062;BMP180;7630;50.306;8.566;2022-08-19T18:16:42;97659.00;;;27.70
15062;BMP180;7630;50.306;8.566;2022-08-19T18:20:44;97659.00;;;27.40
15062;BMP180;7630;50.306;8.566;2022-08-19T18:24:45;97663.00;;;28.00
15062;BMP180;7630;50.306;8.566;2022-08-19T18:28:46;97677.00;;;26.40
15062;BMP180;7630;50.306;8.566;2022-08-19T18:32:51;97677.00;;;26.90
15062;BMP180;7630;50.306;8.566;2022-08-19T18:36:53;97674.00;;;27.10
15062;BMP180;7630;50.306;8.566;2022-08-19T18:40:54;97670.00;;;27.20
15062;BMP180;7630;50.306;8.566;2022-08-19T18:45:14;97694.00;;;26.40
15062;BMP180;7630;50.306;8.566;2022-08-19T18:49:34;97693.00;;;26.60
15062;BMP180;7630;50.306;8.566;2022-08-19T18:53:38;97697.00;;;27.00
15062;BMP180;7630;50.306;8.566;2022-08-19T18:57:40;97691.00;;;27.00
15062;BMP180;7630;50.306;8.566;2022-08-19T19:01:43;97703.00;;;26.70
15062;BMP180;7630;50.306;8.566;2022-08-19T19:05:50;97702.00;;;26.10
15062;BMP180;7630;50.306;8.566;2022-08-19T19:09:52;97713.00;;;26.10
15062;BMP180;7630;50.306;8.566;2022-08-19T19:13:54;97726.00;;;25.90
15062;BMP180;7630;50.306;8.566;2022-08-19T19:17:56;97734.00;;;25.80
15062;BMP180;7630;50.306;8.566;2022-08-19T19:22:02;97735.00;;;25.90
15062;BMP180;7630;50.306;8.566;2022-08-19T19:26:03;97745.00;;;25.60
15062;BMP180;7630;50.306;8.566;2022-08-19T19:30:06;97741.00;;;24.90
15062;BMP180;7630;50.306;8.566;2022-08-19T19:34:08;97753.00;;;26.10
15062;BMP180;7630;50.306;8.566;2022-08-19T19:38:12;97757.00;;;25.40
15062;BMP180;7630;50.306;8.566;2022-08-19T19:42:18;97767.00;;;26.00
15062;BMP180;7630;50.306;8.566;2022-08-19T19:46:20;97762.00;;;25.80
15062;BMP180;7630;50.306;8.566;2022-08-19T19:50:21;97766.00;;;25.60
15062;BMP180;7630;50.306;8.566;2022-08-19T19:54:22;97766.00;;;25.20
15062;BMP180;7630;50.306;8.566;2022-08-19T19:58:25;97776.00;;;24.70
15062;BMP180;7630;50.306;8.566;2022-08-19T20:02:29;97776.00;;;24.40
15062;BMP180;7630;50.306;8.566;2022-08-19T20:06:30;97788.00;;;24.40
15062;BMP180;7630;50.306;8.566;2022-08-19T20:10:32;97785.00;;;24.60
15062;BMP180;7630;50.306;8.566;2022-08-19T20:14:33;97793.00;;;24.50
15062;BMP180;7630;50.306;8.566;2022-08-19T20:18:38;97790.00;;;24.60
15062;BMP180;7630;50.306;8.566;2022-08-19T20:22:41;97801.00;;;24.20
15062;BMP180;7630;50.306;8.566;2022-08-19T20:26:43;97810.00;;;24.10
15062;BMP180;7630;50.306;8.566;2022-08-19T20:30:47;97807.00;;;24.60
15062;BMP180;7630;50.306;8.566;2022-08-19T20:34:48;97807.00;;;24.50
15062;BMP180;7630;50.306;8.566;2022-08-19T20:38:50;97815.00;;;24.50
15062;BMP180;7630;50.306;8.566;2022-08-19T20:42:51;97816.00;;;24.90
15062;BMP180;7630;50.306;8.566;2022-08-19T20:46:52;97806.00;;;24.80
15062;BMP180;7630;50.306;8.566;2022-08-19T20:50:56;97804.00;;;24.20
15062;BMP180;7630;50.306;8.566;2022-08-19T20:54:57;97809.00;;;24.60
15062;BMP180;7630;50.306;8.566;2022-08-19T20:58:58;97809.00;;;24.70
15062;BMP180;7630;50.306;8.566;2022-08-19T21:03:00;97808.00;;;24.60
15062;BMP180;7630;50.306;8.566;2022-08-19T21:07:02;97802.00;;;24.70
15062;BMP180;7630;50.306;8.566;2022-08-19T21:11:03;97812.00;;;24.50
15062;BMP180;7630;50.306;8.566;2022-08-19T21:15:06;97806.00;;;24.20
15062;BMP180;7630;50.306;8.566;2022-08-19T21:19:07;97813.00;;;24.20
15062;BMP180;7630;50.306;8.566;2022-08-19T21:23:11;97820.00;;;24.60
15062;BMP180;7630;50.306;8.566;2022-08-19T21:27:13;97815.00;;;24.30
15062;BMP180;7630;50.306;8.566;2022-08-19T21:31:14;97814.00;;;23.90
15062;BMP180;7630;50.306;8.566;2022-08-19T21:35:17;97819.00;;;24.20
15062;BMP180;7630;50.306;8.566;2022-08-19T21:39:19;97817.00;;;24.00
15062;BMP180;7630;50.306;8.566;2022-08-19T21:43:21;97814.00;;;24.00
15062;BMP180;7630;50.306;8.566;2022-08-19T21:47:23;97809.00;;;24.30
15062;BMP180;7630;50.306;8.566;2022-08-19T21:51:24;97809.00;;;24.00
15062;BMP180;7630;50.306;8.566;2022-08-19T21:55:27;97814.00;;;24.20
15062;BMP180;7630;50.306;8.566;2022-08-19T21:59:49;97821.00;;;23.50
15062;BMP180;7630;50.306;8.566;2022-08-19T22:03:50;97815.00;;;23.70
15062;BMP180;7630;50.306;8.566;2022-08-19T22:07:54;97827.00;;;23.30
15062;BMP180;7630;50.306;8.566;2022-08-19T22:12:00;97823.00;;;22.70
15062;BMP180;7630;50.306;8.566;2022-08-19T22:16:01;97819.00;;;22.50
15062;BMP180;7630;50.306;8.566;2022-08-19T22:20:05;97816.00;;;22.00
15062;BMP180;7630;50.306;8.566;2022-08-19T22:24:08;97812.00;;;22.10
15062;BMP180;7630;50.306;8.566;2022-08-19T22:28:12;97813.00;;;22.50
15062;BMP180;7630;50.306;8.566;2022-08-19T22:32:15;97819.00;;;22.80
15062;BMP180;7630;50.306;8.566;2022-08-19T22:36:18;97817.00;;;22.50
15062;BMP180;7630;50.306;8.566;2022-08-19T22:40:20;97816.00;;;22.10
15062;BMP180;7630;50.306;8.566;2022-08-19T22:44:21;97813.00;;;22.30
15062;BMP180;7630;50.306;8.566;2022-08-19T22:48:24;97807.00;;;22.50
15062;BMP180;7630;50.306;8.566;2022-08-19T22:52:26;97795.00;;;22.90
15062;BMP180;7630;50.306;8.566;2022-08-19T22:56:27;97803.00;;;22.80
15062;BMP180;7630;50.306;8.566;2022-08-19T23:00:31;97811.00;;;22.90
15062;BMP180;7630;50.306;8.566;2022-08-19T23:04:32;97810.00;;;23.00
15062;BMP180;7630;50.306;8.566;2022-08-19T23:08:34;97814.00;;;23.30
15062;BMP180;7630;50.306;8.566;2022-08-19T23:12:40;97805.00;;;22.80
15062;BMP180;7630;50.306;8.566;2022-08-19T23:16:44;97795.00;;;22.40
15062;BMP180;7630;50.306;8.566;2022-08-19T23:20:48;97803.00;;;22.70
15062;BMP180;7630;50.306;8.566;2022-08-19T23:24:49;97804.00;;;22.70
15062;BMP180;7630;50.306;8.566;2022-08-19T23:28:52;97805.00;;;22.40
15062;BMP180;7630;50.306;8.566;2022-08-19T23:33:21;97806.00;;;22.80
15062;BMP180;7630;50.306;8.566;2022-08-19T23:37:24;97813.00;;;22.10
15062;BMP180;7630;50.306;8.566;2022-08-19T23:41:25;97794.00;;;22.00